sensor_id;sensor_type;location;lat;lon;timestamp;P1;durP1;ratioP1;P2;durP2;ratioP2
19554;SDS011;9924;50.828;6.440;2022-07-22T00:02:00;15.00;;;9.45;;
19554;SDS011;9924;50.828;6.440;2022-07-22T00:04:25;21.75;;;8.57;;
19554;SDS011;9924;50.828;6.440;2022-07-22T00:06:51;17.50;;;9.02;;
19554;SDS011;9924;50.828;6.440;2022-07-22T00:09:17;16.00;;;9.27;;
19554;SDS011;9924;50.828;6.440;2022-07-22T00:11:43;16.65;;;8.18;;
19554;SDS011;9924;50.828;6.440;2022-07-22T00:14:08;22.67;;;9.23;;
19554;SDS011;9924;50.828;6.440;2022-07-22T00:16:34;17.48;;;8.80;;
19554;SDS011;9924;50.828;6.440;2022-07-22T00:19:00;15.98;;;8.32;;
19554;SDS011;9924;50.828;6.440;2022-07-22T00:21:26;19.73;;;7.88;;
19554;SDS011;9924;50.828;6.440;2022-07-22T00:23:51;13.52;;;6.82;;
19554;SDS011;9924;50.828;6.440;2022-07-22T00:26:17;13.50;;;6.40;;
19554;SDS011;9924;50.828;6.440;2022-07-22T00:28:43;14.68;;;5.95;;
19554;SDS011;9924;50.828;6.440;2022-07-22T00:31:08;17.42;;;7.10;;
19554;SDS011;9924;50.828;6.440;2022-07-22T00:33:34;15.75;;;6.90;;
19554;SDS011;9924;50.828;6.440;2022-07-22T00:36:00;18.55;;;5.97;;
19554;SDS011;9924;50.828;6.440;2022-07-22T00:38:26;15.80;;;6.10;;
19554;SDS011;9924;50.828;6.440;2022-07-22T00:40:51;13.20;;;6.28;;
19554;SDS011;9924;50.828;6.440;2022-07-22T00:43:17;15.77;;;6.00;;
19554;SDS011;9924;50.828;6.440;2022-07-22T00:45:43;13.02;;;6.03;;
19554;SDS011;9924;50.828;6.440;2022-07-22T00:48:09;13.90;;;6.57;;
19554;SDS011;9924;50.828;6.440;2022-07-22T00:50:35;13.27;;;5.60;;
19554;SDS011;9924;50.828;6.440;2022-07-22T00:53:01;13.35;;;6.43;;
19554;SDS011;9924;50.828;6.440;2022-07-22T00:55:27;19.42;;;5.35;;
19554;SDS011;9924;50.828;6.440;2022-07-22T00:57:53;10.93;;;4.95;;
19554;SDS011;9924;50.828;6.440;2022-07-22T01:00:20;12.48;;;5.57;;
19554;SDS011;9924;50.828;6.440;2022-07-22T01:02:47;14.55;;;5.57;;
19554;SDS011;9924;50.828;6.440;2022-07-22T01:05:12;11.90;;;5.95;;
19554;SDS011;9924;50.828;6.440;2022-07-22T01:07:38;13.70;;;6.28;;
19554;SDS011;9924;50.828;6.440;2022-07-22T01:10:05;11.35;;;5.60;;
19554;SDS011;9924;50.828;6.440;2022-07-22T01:12:31;10.60;;;5.88;;
19554;SDS011;9924;50.828;6.440;2022-07-22T01:14:57;10.90;;;5.53;;
19554;SDS011;9924;50.828;6.440;2022-07-22T01:17:24;13.43;;;5.93;;
19554;SDS011;9924;50.828;6.440;2022-07-22T01:19:50;13.73;;;6.35;;
19554;SDS011;9924;50.828;6.440;2022-07-22T01:22:15;10.88;;;5.40;;
19554;SDS011;9924;50.828;6.440;2022-07-22T01:24:41;12.13;;;5.03;;
19554;SDS011;9924;50.828;6.440;2022-07-22T01:27:07;11.52;;;5.72;;
19554;SDS011;9924;50.828;6.440;2022-07-22T01:29:33;17.17;;;5.47;;
19554;SDS011;9924;50.828;6.440;2022-07-22T01:31:59;18.75;;;6.55;;
19554;SDS011;9924;50.828;6.440;2022-07-22T01:34:25;12.18;;;6.07;;
19554;SDS011;9924;50.828;6.440;2022-07-22T01:36:50;7.90;;;5.13;;
19554;SDS011;9924;50.828;6.440;2022-07-22T01:39:16;16.00;;;5.88;;
19554;SDS011;9924;50.828;6.440;2022-07-22T01:41:42;12.80;;;6.05;;
19554;SDS011;9924;50.828;6.440;2022-07-22T01:44:08;14.07;;;6.75;;
19554;SDS011;9924;50.828;6.440;2022-07-22T01:46:35;16.77;;;6.40;;
19554;SDS011;9924;50.828;6.440;2022-07-22T01:49:01;15.98;;;6.57;;
19554;SDS011;9924;50.828;6.440;2022-07-22T01:51:27;16.85;;;6.10;;
19554;SDS011;9924;50.828;6.440;2022-07-22T01:53:52;16.08;;;5.95;;
19554;SDS011;9924;50.828;6.440;2022-07-22T01:56:18;15.05;;;6.43;;
19554;SDS011;9924;50.828;6.440;2022-07-22T01:58:44;14.13;;;6.53;;
19554;SDS011;9924;50.828;6.440;2022-07-22T02:01:10;13.27;;;6.25;;
19554;SDS011;9924;50.828;6.440;2022-07-22T02:03:36;15.07;;;6.00;;
19554;SDS011;9924;50.828;6.440;2022-07-22T02:06:02;13.00;;;5.32;;
19554;SDS011;9924;50.828;6.440;2022-07-22T02:08:28;9.82;;;4.22;;
19554;SDS011;9924;50.828;6.440;2022-07-22T02:10:54;4.40;;;3.22;;
19554;SDS011;9924;50.828;6.440;2022-07-22T02:13:19;4.82;;;3.13;;
19554;SDS011;9924;50.828;6.440;2022-07-22T02:15:45;7.93;;;3.75;;
19554;SDS011;9924;50.828;6.440;2022-07-22T02:18:14;9.82;;;3.85;;
19554;SDS011;9924;50.828;6.440;2022-07-22T02:20:42;7.07;;;3.13;;
19554;SDS011;9924;50.828;6.440;2022-07-22T02:23:08;6.72;;;2.92;;
19554;SDS011;9924;50.828;6.440;2022-07-22T02:25:36;4.65;;;2.70;;
19554;SDS011;9924;50.828;6.440;2022-07-22T02:28:03;6.07;;;3.47;;
19554;SDS011;9924;50.828;6.440;2022-07-22T02:30:29;6.68;;;2.90;;
19554;SDS011;9924;50.828;6.440;2022-07-22T02:32:55;8.52;;;2.90;;
19554;SDS011;9924;50.828;6.440;2022-07-22T02:35:22;4.85;;;2.63;;
19554;SDS011;9924;50.828;6.440;2022-07-22T02:37:47;6.93;;;3.15;;
19554;SDS011;9924;50.828;6.440;2022-07-22T02:40:13;7.28;;;3.15;;
19554;SDS011;9924;50.828;6.440;2022-07-22T02:42:39;13.68;;;4.65;;
19554;SDS011;9924;50.828;6.440;2022-07-22T02:45:05;13.48;;;4.90;;
19554;SDS011;9924;50.828;6.440;2022-07-22T02:47:31;14.40;;;5.25;;
19554;SDS011;9924;50.828;6.440;2022-07-22T02:49:57;12.63;;;5.13;;
19554;SDS011;9924;50.828;6.440;2022-07-22T02:52:23;13.38;;;5.88;;
19554;SDS011;9924;50.828;6.440;2022-07-22T02:54:48;11.00;;;5.40;;
19554;SDS011;9924;50.828;6.440;2022-07-22T02:57:14;17.05;;;6.05;;
19554;SDS011;9924;50.828;6.440;2022-07-22T02:59:40;15.80;;;6.93;;
19554;SDS011;9924;50.828;6.440;2022-07-22T03:02:06;15.85;;;6.00;;
19554;SDS011;9924;50.828;6.440;2022-07-22T03:04:31;16.25;;;7.20;;
19554;SDS011;9924;50.828;6.440;2022-07-22T03:06:58;12.50;;;7.03;;
19554;SDS011;9924;50.828;6.440;2022-07-22T03:09:23;15.85;;;6.63;;
19554;SDS011;9924;50.828;6.440;2022-07-22T03:11:49;19.08;;;7.43;;
19554;SDS011;9924;50.828;6.440;2022-07-22T03:14:15;14.65;;;6.93;;
19554;SDS011;9924;50.828;6.440;2022-07-22T03:16:43;16.10;;;6.88;;
19554;SDS011;9924;50.828;6.440;2022-07-22T03:19:09;14.95;;;7.45;;
19554;SDS011;9924;50.828;6.440;2022-07-22T03:21:35;19.60;;;7.35;;
19554;SDS011;9924;50.828;6.440;2022-07-22T03:24:01;15.27;;;6.53;;
19554;SDS011;9924;50.828;6.440;2022-07-22T03:26:27;14.55;;;6.85;;
19554;SDS011;9924;50.828;6.440;2022-07-22T03:28:53;13.93;;;7.22;;
19554;SDS011;9924;50.828;6.440;2022-07-22T03:31:18;14.70;;;7.93;;
19554;SDS011;9924;50.828;6.440;2022-07-22T03:33:44;16.02;;;9.10;;
19554;SDS011;9924;50.828;6.440;2022-07-22T03:36:10;17.42;;;7.97;;
19554;SDS011;9924;50.828;6.440;2022-07-22T03:38:36;16.80;;;7.65;;
19554;SDS011;9924;50.828;6.440;2022-07-22T03:41:02;13.25;;;6.78;;
19554;SDS011;9924;50.828;6.440;2022-07-22T03:43:29;15.85;;;7.55;;
19554;SDS011;9924;50.828;6.440;2022-07-22T03:45:55;16.13;;;7.55;;
19554;SDS011;9924;50.828;6.440;2022-07-22T03:48:21;15.20;;;7.30;;
19554;SDS011;9924;50.828;6.440;2022-07-22T03:50:47;17.38;;;6.88;;
19554;SDS011;9924;50.828;6.440;2022-07-22T03:53:14;19.92;;;6.90;;
19554;SDS011;9924;50.828;6.440;2022-07-22T03:55:41;9.60;;;6.55;;
19554;SDS011;9924;50.828;6.440;2022-07-22T03:58:07;12.77;;;7.85;;
19554;SDS011;9924;50.828;6.440;2022-07-22T04:00:33;19.73;;;7.00;;
19554;SDS011;9924;50.828;6.440;2022-07-22T04:02:59;16.13;;;7.35;;
19554;SDS011;9924;50.828;6.440;2022-07-22T04:05:25;19.17;;;8.82;;
19554;SDS011;9924;50.828;6.440;2022-07-22T04:07:51;14.35;;;7.40;;
19554;SDS011;9924;50.828;6.440;2022-07-22T04:10:17;13.23;;;7.53;;
19554;SDS011;9924;50.828;6.440;2022-07-22T04:12:43;14.75;;;7.85;;
19554;SDS011;9924;50.828;6.440;2022-07-22T04:15:09;14.70;;;7.03;;
19554;SDS011;9924;50.828;6.440;2022-07-22T04:17:35;15.00;;;8.32;;
19554;SDS011;9924;50.828;6.440;2022-07-22T04:20:02;15.10;;;8.25;;
19554;SDS011;9924;50.828;6.440;2022-07-22T04:22:28;19.63;;;8.63;;
19554;SDS011;9924;50.828;6.440;2022-07-22T04:24:54;14.80;;;8.00;;
19554;SDS011;9924;50.828;6.440;2022-07-22T04:27:20;14.82;;;8.30;;
19554;SDS011;9924;50.828;6.440;2022-07-22T04:29:46;15.75;;;8.07;;
19554;SDS011;9924;50.828;6.440;2022-07-22T04:32:15;18.52;;;7.93;;
19554;SDS011;9924;50.828;6.440;2022-07-22T04:34:41;13.18;;;7.63;;
19554;SDS011;9924;50.828;6.440;2022-07-22T04:37:07;19.15;;;8.43;;
19554;SDS011;9924;50.828;6.440;2022-07-22T04:39:33;17.23;;;8.10;;
19554;SDS011;9924;50.828;6.440;2022-07-22T04:41:59;13.13;;;7.25;;
19554;SDS011;9924;50.828;6.440;2022-07-22T04:44:26;16.90;;;7.85;;
19554;SDS011;9924;50.828;6.440;2022-07-22T04:46:51;11.70;;;7.32;;
19554;SDS011;9924;50.828;6.440;2022-07-22T04:49:17;13.85;;;7.20;;
19554;SDS011;9924;50.828;6.440;2022-07-22T04:51:43;13.95;;;7.43;;
19554;SDS011;9924;50.828;6.440;2022-07-22T04:54:09;15.02;;;7.25;;
19554;SDS011;9924;50.828;6.440;2022-07-22T04:56:34;11.82;;;7.35;;
19554;SDS011;9924;50.828;6.440;2022-07-22T04:59:00;13.77;;;6.80;;
19554;SDS011;9924;50.828;6.440;2022-07-22T05:01:26;13.52;;;7.10;;
19554;SDS011;9924;50.828;6.440;2022-07-22T05:03:51;16.65;;;7.38;;
19554;SDS011;9924;50.828;6.440;2022-07-22T05:06:18;15.32;;;7.03;;
19554;SDS011;9924;50.828;6.440;2022-07-22T05:08:43;11.93;;;6.75;;
19554;SDS011;9924;50.828;6.440;2022-07-22T05:11:09;14.02;;;7.78;;
19554;SDS011;9924;50.828;6.440;2022-07-22T05:13:35;13.95;;;7.20;;
19554;SDS011;9924;50.828;6.440;2022-07-22T05:16:02;12.63;;;6.78;;
19554;SDS011;9924;50.828;6.440;2022-07-22T05:18:29;15.48;;;7.18;;
19554;SDS011;9924;50.828;6.440;2022-07-22T05:20:55;12.68;;;6.63;;
19554;SDS011;9924;50.828;6.440;2022-07-22T05:23:21;11.43;;;6.40;;
19554;SDS011;9924;50.828;6.440;2022-07-22T05:25:46;13.25;;;6.35;;
19554;SDS011;9924;50.828;6.440;2022-07-22T05:28:12;13.95;;;5.97;;
19554;SDS011;9924;50.828;6.440;2022-07-22T05:30:38;16.23;;;7.20;;
19554;SDS011;9924;50.828;6.440;2022-07-22T05:33:04;10.07;;;5.63;;
19554;SDS011;9924;50.828;6.440;2022-07-22T05:35:30;10.73;;;5.32;;
19554;SDS011;9924;50.828;6.440;2022-07-22T05:37:56;6.15;;;3.35;;
19554;SDS011;9924;50.828;6.440;2022-07-22T05:40:22;5.32;;;3.40;;
19554;SDS011;9924;50.828;6.440;2022-07-22T05:42:47;7.00;;;3.42;;
19554;SDS011;9924;50.828;6.440;2022-07-22T05:45:13;4.63;;;3.25;;
19554;SDS011;9924;50.828;6.440;2022-07-22T05:47:39;5.32;;;3.30;;
19554;SDS011;9924;50.828;6.440;2022-07-22T05:50:05;4.35;;;3.25;;
19554;SDS011;9924;50.828;6.440;2022-07-22T05:52:31;9.55;;;4.90;;
19554;SDS011;9924;50.828;6.440;2022-07-22T05:54:59;8.40;;;3.72;;
19554;SDS011;9924;50.828;6.440;2022-07-22T05:57:26;6.15;;;3.08;;
19554;SDS011;9924;50.828;6.440;2022-07-22T05:59:51;5.43;;;3.25;;
19554;SDS011;9924;50.828;6.440;2022-07-22T06:02:17;6.10;;;3.63;;
19554;SDS011;9924;50.828;6.440;2022-07-22T06:04:43;7.88;;;4.15;;
19554;SDS011;9924;50.828;6.440;2022-07-22T06:07:09;10.02;;;5.47;;
19554;SDS011;9924;50.828;6.440;2022-07-22T06:09:35;7.10;;;4.38;;
19554;SDS011;9924;50.828;6.440;2022-07-22T06:12:00;6.55;;;4.22;;
19554;SDS011;9924;50.828;6.440;2022-07-22T06:14:27;7.10;;;4.03;;
19554;SDS011;9924;50.828;6.440;2022-07-22T06:16:53;6.28;;;3.85;;
19554;SDS011;9924;50.828;6.440;2022-07-22T06:19:19;6.70;;;3.72;;
19554;SDS011;9924;50.828;6.440;2022-07-22T06:21:44;7.80;;;4.28;;
19554;SDS011;9924;50.828;6.440;2022-07-22T06:24:10;7.72;;;4.32;;
19554;SDS011;9924;50.828;6.440;2022-07-22T06:26:36;8.07;;;4.10;;
19554;SDS011;9924;50.828;6.440;2022-07-22T06:29:02;8.55;;;5.00;;
19554;SDS011;9924;50.828;6.440;2022-07-22T06:31:28;8.40;;;4.80;;
19554;SDS011;9924;50.828;6.440;2022-07-22T06:33:57;6.93;;;4.18;;
19554;SDS011;9924;50.828;6.440;2022-07-22T06:36:23;9.68;;;4.50;;
19554;SDS011;9924;50.828;6.440;2022-07-22T06:38:49;8.68;;;4.80;;
19554;SDS011;9924;50.828;6.440;2022-07-22T06:41:15;10.60;;;5.70;;
19554;SDS011;9924;50.828;6.440;2022-07-22T06:43:44;10.85;;;5.20;;
19554;SDS011;9924;50.828;6.440;2022-07-22T06:46:10;9.50;;;5.05;;
19554;SDS011;9924;50.828;6.440;2022-07-22T06:48:36;9.73;;;5.43;;
19554;SDS011;9924;50.828;6.440;2022-07-22T06:51:02;13.88;;;5.28;;
19554;SDS011;9924;50.828;6.440;2022-07-22T06:53:28;8.77;;;4.80;;
19554;SDS011;9924;50.828;6.440;2022-07-22T06:55:54;7.68;;;5.18;;
19554;SDS011;9924;50.828;6.440;2022-07-22T06:58:20;10.02;;;6.00;;
19554;SDS011;9924;50.828;6.440;2022-07-22T07:00:48;11.07;;;6.07;;
19554;SDS011;9924;50.828;6.440;2022-07-22T07:03:14;10.20;;;5.50;;
19554;SDS011;9924;50.828;6.440;2022-07-22T07:05:40;11.73;;;5.45;;
19554;SDS011;9924;50.828;6.440;2022-07-22T07:08:05;13.60;;;6.35;;
19554;SDS011;9924;50.828;6.440;2022-07-22T07:10:32;10.38;;;5.95;;
19554;SDS011;9924;50.828;6.440;2022-07-22T07:12:58;10.55;;;6.20;;
19554;SDS011;9924;50.828;6.440;2022-07-22T07:15:24;10.93;;;5.93;;
19554;SDS011;9924;50.828;6.440;2022-07-22T07:17:51;10.60;;;5.50;;
19554;SDS011;9924;50.828;6.440;2022-07-22T07:20:18;15.88;;;7.30;;
19554;SDS011;9924;50.828;6.440;2022-07-22T07:22:44;10.35;;;5.60;;
19554;SDS011;9924;50.828;6.440;2022-07-22T07:25:10;12.02;;;6.35;;
19554;SDS011;9924;50.828;6.440;2022-07-22T07:27:36;11.35;;;5.45;;
19554;SDS011;9924;50.828;6.440;2022-07-22T07:30:05;12.50;;;6.55;;
19554;SDS011;9924;50.828;6.440;2022-07-22T07:32:31;10.05;;;5.75;;
19554;SDS011;9924;50.828;6.440;2022-07-22T07:34:57;8.88;;;5.22;;
19554;SDS011;9924;50.828;6.440;2022-07-22T07:37:23;12.02;;;6.65;;
19554;SDS011;9924;50.828;6.440;2022-07-22T07:39:49;12.07;;;6.38;;
19554;SDS011;9924;50.828;6.440;2022-07-22T07:42:15;11.65;;;6.03;;
19554;SDS011;9924;50.828;6.440;2022-07-22T07:44:41;10.75;;;6.70;;
19554;SDS011;9924;50.828;6.440;2022-07-22T07:47:10;10.60;;;5.97;;
19554;SDS011;9924;50.828;6.440;2022-07-22T07:49:37;10.65;;;5.93;;
19554;SDS011;9924;50.828;6.440;2022-07-22T07:52:03;10.55;;;5.88;;
19554;SDS011;9924;50.828;6.440;2022-07-22T07:54:28;10.43;;;6.07;;
19554;SDS011;9924;50.828;6.440;2022-07-22T07:56:54;11.10;;;6.43;;
19554;SDS011;9924;50.828;6.440;2022-07-22T07:59:22;12.07;;;7.10;;
19554;SDS011;9924;50.828;6.440;2022-07-22T08:01:47;14.00;;;6.97;;
19554;SDS011;9924;50.828;6.440;2022-07-22T08:04:13;9.55;;;6.72;;
19554;SDS011;9924;50.828;6.440;2022-07-22T08:06:39;11.90;;;6.45;;
19554;SDS011;9924;50.828;6.440;2022-07-22T08:09:05;13.63;;;6.70;;
19554;SDS011;9924;50.828;6.440;2022-07-22T08:11:31;13.13;;;7.13;;
19554;SDS011;9924;50.828;6.440;2022-07-22T08:13:57;10.88;;;6.22;;
19554;SDS011;9924;50.828;6.440;2022-07-22T08:16:25;14.50;;;6.80;;
19554;SDS011;9924;50.828;6.440;2022-07-22T08:18:51;12.23;;;6.57;;
19554;SDS011;9924;50.828;6.440;2022-07-22T08:21:17;13.57;;;6.72;;
19554;SDS011;9924;50.828;6.440;2022-07-22T08:23:44;12.43;;;6.65;;
19554;SDS011;9924;50.828;6.440;2022-07-22T08:26:09;14.02;;;6.50;;
19554;SDS011;9924;50.828;6.440;2022-07-22T08:28:35;13.35;;;6.65;;
19554;SDS011;9924;50.828;6.440;2022-07-22T08:31:01;17.50;;;8.10;;
19554;SDS011;9924;50.828;6.440;2022-07-22T08:33:27;11.77;;;6.85;;
19554;SDS011;9924;50.828;6.440;2022-07-22T08:35:55;14.60;;;6.45;;
19554;SDS011;9924;50.828;6.440;2022-07-22T08:38:21;12.82;;;7.20;;
19554;SDS011;9924;50.828;6.440;2022-07-22T08:40:47;14.35;;;7.63;;
19554;SDS011;9924;50.828;6.440;2022-07-22T08:43:13;14.23;;;7.30;;
19554;SDS011;9924;50.828;6.440;2022-07-22T08:45:43;14.75;;;7.65;;
19554;SDS011;9924;50.828;6.440;2022-07-22T08:48:08;17.60;;;7.03;;
19554;SDS011;9924;50.828;6.440;2022-07-22T08:50:34;16.38;;;7.63;;
19554;SDS011;9924;50.828;6.440;2022-07-22T08:53:00;14.52;;;7.53;;
19554;SDS011;9924;50.828;6.440;2022-07-22T08:55:26;13.48;;;6.70;;
19554;SDS011;9924;50.828;6.440;2022-07-22T08:57:52;15.48;;;7.32;;
19554;SDS011;9924;50.828;6.440;2022-07-22T09:00:19;11.88;;;6.68;;
19554;SDS011;9924;50.828;6.440;2022-07-22T09:02:46;14.20;;;7.78;;
19554;SDS011;9924;50.828;6.440;2022-07-22T09:05:13;13.10;;;7.40;;
19554;SDS011;9924;50.828;6.440;2022-07-22T09:07:41;15.32;;;7.15;;
19554;SDS011;9924;50.828;6.440;2022-07-22T09:10:14;12.98;;;6.88;;
19554;SDS011;9924;50.828;6.440;2022-07-22T09:12:50;11.23;;;7.28;;
19554;SDS011;9924;50.828;6.440;2022-07-22T09:15:23;11.57;;;6.20;;
19554;SDS011;9924;50.828;6.440;2022-07-22T09:17:51;10.27;;;6.05;;
19554;SDS011;9924;50.828;6.440;2022-07-22T09:20:18;13.00;;;5.93;;
19554;SDS011;9924;50.828;6.440;2022-07-22T09:22:47;10.48;;;6.20;;
19554;SDS011;9924;50.828;6.440;2022-07-22T09:27:49;10.85;;;5.82;;
19554;SDS011;9924;50.828;6.440;2022-07-22T09:30:18;11.30;;;6.97;;
19554;SDS011;9924;50.828;6.440;2022-07-22T09:32:51;11.52;;;6.75;;
19554;SDS011;9924;50.828;6.440;2022-07-22T09:35:19;11.65;;;6.85;;
19554;SDS011;9924;50.828;6.440;2022-07-22T09:40:24;11.90;;;6.45;;
19554;SDS011;9924;50.828;6.440;2022-07-22T09:42:58;14.60;;;7.28;;
19554;SDS011;9924;50.828;6.440;2022-07-22T09:45:27;12.02;;;7.03;;
19554;SDS011;9924;50.828;6.440;2022-07-22T09:47:56;16.30;;;7.65;;
19554;SDS011;9924;50.828;6.440;2022-07-22T09:50:33;13.27;;;7.80;;
19554;SDS011;9924;50.828;6.440;2022-07-22T09:52:59;15.80;;;7.55;;
19554;SDS011;9924;50.828;6.440;2022-07-22T09:55:27;12.65;;;6.78;;
19554;SDS011;9924;50.828;6.440;2022-07-22T09:57:54;12.70;;;6.55;;
19554;SDS011;9924;50.828;6.440;2022-07-22T10:00:22;11.40;;;6.72;;
19554;SDS011;9924;50.828;6.440;2022-07-22T10:02:53;10.50;;;7.13;;
19554;SDS011;9924;50.828;6.440;2022-07-22T10:05:31;13.77;;;6.55;;
19554;SDS011;9924;50.828;6.440;2022-07-22T10:08:02;12.95;;;7.18;;
19554;SDS011;9924;50.828;6.440;2022-07-22T10:10:30;12.52;;;6.57;;
19554;SDS011;9924;50.828;6.440;2022-07-22T10:12:57;12.55;;;6.90;;
19554;SDS011;9924;50.828;6.440;2022-07-22T10:15:25;13.00;;;7.15;;
19554;SDS011;9924;50.828;6.440;2022-07-22T10:17:55;11.32;;;6.75;;
19554;SDS011;9924;50.828;6.440;2022-07-22T10:20:24;12.98;;;6.53;;
19554;SDS011;9924;50.828;6.440;2022-07-22T23:47:42;21.23;;;13.18;;
19554;SDS011;9924;50.828;6.440;2022-07-22T23:50:08;15.65;;;11.32;;
19554;SDS011;9924;50.828;6.440;2022-07-22T23:52:35;19.60;;;12.13;;
19554;SDS011;9924;50.828;6.440;2022-07-22T23:55:02;19.85;;;11.70;;
19554;SDS011;9924;50.828;6.440;2022-07-22T23:57:29;18.30;;;10.43;;
19554;SDS011;9924;50.828;6.440;2022-07-22T23:59:54;17.85;;;11.35;;
